createdAt,value
2019-03-27T00:00:46.147Z,23.10
2019-03-27T00:03:16.016Z,22.33
2019-03-27T00:05:45.908Z,23.47
2019-03-27T00:08:15.703Z,23.07
2019-03-27T00:10:45.499Z,21.67
2019-03-27T00:13:15.315Z,20.17
2019-03-27T00:15:45.111Z,20.93
2019-03-27T00:18:15.011Z,21.87
2019-03-27T00:20:44.847Z,23.30
2019-03-27T00:23:14.644Z,24.37
2019-03-27T00:25:44.595Z,26.33
2019-03-27T00:28:14.467Z,23.20
2019-03-27T00:30:44.327Z,24.07
2019-03-27T00:33:14.115Z,30.90
2019-03-27T00:35:44.003Z,32.03
2019-03-27T00:38:13.774Z,25.83
2019-03-27T00:40:43.663Z,23.33
2019-03-27T00:43:13.498Z,26.50
2019-03-27T00:45:43.312Z,27.00
2019-03-27T00:48:13.123Z,27.73
2019-03-27T00:50:42.987Z,25.97
2019-03-27T00:53:12.753Z,28.13
2019-03-27T00:55:42.515Z,26.07
2019-03-27T00:58:12.403Z,26.17
2019-03-27T01:01:07.775Z,27.47
2019-03-27T01:03:37.622Z,26.07
2019-03-27T01:06:07.716Z,24.30
2019-03-27T01:08:37.763Z,26.33
2019-03-27T01:11:07.554Z,24.37
2019-03-27T01:13:37.434Z,24.97
2019-03-27T01:16:07.250Z,24.07
2019-03-27T01:18:37.097Z,26.17
2019-03-27T01:21:06.878Z,25.40
2019-03-27T01:23:36.648Z,26.90
2019-03-27T01:26:06.480Z,35.83
2019-03-27T01:28:36.270Z,36.30
2019-03-27T01:31:06.142Z,32.97
2019-03-27T01:33:35.946Z,49.53
2019-03-27T01:36:05.783Z,44.73
2019-03-27T01:38:35.582Z,40.43
2019-03-27T01:41:05.440Z,38.60
2019-03-27T01:43:35.305Z,33.57
2019-03-27T01:46:05.118Z,33.60
2019-03-27T01:48:34.899Z,32.97
2019-03-27T01:51:04.765Z,30.40
2019-03-27T01:53:34.569Z,30.27
2019-03-27T01:56:04.386Z,30.73
2019-03-27T01:58:34.218Z,28.73
2019-03-27T02:01:04.485Z,28.93
2019-03-27T02:03:34.213Z,28.90
2019-03-27T02:06:04.085Z,27.60
2019-03-27T02:08:33.948Z,26.97
2019-03-27T02:11:03.733Z,25.77
2019-03-27T02:13:33.653Z,25.03
2019-03-27T02:16:07.261Z,20.60
2019-03-27T02:18:34.944Z,22.10
2019-03-27T02:21:04.746Z,21.37
2019-03-27T02:23:34.589Z,21.47
2019-03-27T02:26:04.413Z,23.97
2019-03-27T02:28:34.225Z,27.87
2019-03-27T02:31:04.014Z,24.27
2019-03-27T02:33:33.940Z,21.47
2019-03-27T02:36:03.735Z,19.80
2019-03-27T02:38:33.557Z,20.57
2019-03-27T02:41:03.500Z,21.80
2019-03-27T02:43:33.406Z,20.03
2019-03-27T02:46:03.279Z,20.10
2019-03-27T02:48:33.142Z,20.63
2019-03-27T02:51:02.970Z,18.53
2019-03-27T02:53:32.757Z,19.97
2019-03-27T02:56:02.570Z,18.97
2019-03-27T02:58:32.417Z,17.83
2019-03-27T03:01:02.340Z,18.17
2019-03-27T03:03:32.134Z,21.07
2019-03-27T03:06:01.959Z,19.40
2019-03-27T03:08:31.829Z,18.57
2019-03-27T03:11:01.692Z,18.93
2019-03-27T03:13:31.549Z,17.63
2019-03-27T03:16:01.340Z,18.70
2019-03-27T03:18:31.224Z,17.97
2019-03-27T03:21:01.048Z,18.97
2019-03-27T03:23:31.069Z,17.73
2019-03-27T03:26:00.904Z,15.80
2019-03-27T03:28:30.796Z,15.97
2019-03-27T03:31:02.006Z,17.00
2019-03-27T03:33:31.841Z,18.70
2019-03-27T03:36:01.628Z,16.73
2019-03-27T03:38:31.457Z,16.30
2019-03-27T03:41:01.408Z,17.37
2019-03-27T03:43:31.242Z,15.70
2019-03-27T03:46:01.161Z,16.03
2019-03-27T03:48:31.009Z,17.43
2019-03-27T03:51:02.401Z,15.83
2019-03-27T03:53:33.508Z,16.83
2019-03-27T03:56:03.836Z,18.37
2019-03-27T03:58:37.086Z,21.57
2019-03-27T04:01:07.941Z,21.10
2019-03-27T04:03:39.835Z,21.57
2019-03-27T04:06:09.686Z,20.97
2019-03-27T04:08:39.512Z,19.13
2019-03-27T04:11:09.343Z,21.10
2019-03-27T04:13:39.287Z,28.57
2019-03-27T04:16:09.200Z,28.37
2019-03-27T04:18:39.041Z,25.03
2019-03-27T04:21:08.937Z,21.67
2019-03-27T04:23:38.853Z,22.87
2019-03-27T04:26:10.521Z,21.17
2019-03-27T04:28:40.125Z,23.07
2019-03-27T04:31:10.040Z,20.40
2019-03-27T04:33:39.944Z,22.43
2019-03-27T04:36:10.676Z,20.93
2019-03-27T04:38:40.622Z,16.60
2019-03-27T04:41:10.516Z,15.50
2019-03-27T04:43:40.343Z,16.47
2019-03-27T04:46:10.175Z,14.90
2019-03-27T04:48:40.216Z,14.53
2019-03-27T04:51:10.129Z,16.20
2019-03-27T04:53:39.971Z,15.43
2019-03-27T04:56:09.859Z,14.37
2019-03-27T04:58:39.684Z,15.83
2019-03-27T05:01:09.495Z,17.30
2019-03-27T05:03:39.347Z,16.57
2019-03-27T05:06:09.214Z,16.37
2019-03-27T05:08:39.134Z,16.53
2019-03-27T05:11:08.970Z,16.33
2019-03-27T05:13:38.923Z,14.90
2019-03-27T05:16:08.804Z,17.50
2019-03-27T05:18:38.598Z,17.47
2019-03-27T05:21:08.415Z,20.77
2019-03-27T05:23:38.314Z,30.80
2019-03-27T05:26:08.193Z,25.60
2019-03-27T05:28:37.986Z,23.73
2019-03-27T05:31:07.904Z,21.90
2019-03-27T05:33:37.818Z,21.43
2019-03-27T05:36:07.601Z,17.80
2019-03-27T05:38:37.314Z,17.93
2019-03-27T05:41:07.142Z,15.73
2019-03-27T05:43:36.966Z,15.33
2019-03-27T05:46:06.810Z,12.40
2019-03-27T05:48:36.618Z,13.57
2019-03-27T05:51:06.450Z,13.63
2019-03-27T05:53:36.233Z,13.43
2019-03-27T05:56:06.042Z,15.00
2019-03-27T05:58:35.817Z,13.33
2019-03-27T06:01:05.654Z,14.53
2019-03-27T06:03:35.497Z,14.77
2019-03-27T06:06:05.289Z,14.10
2019-03-27T06:08:35.121Z,12.97
2019-03-27T06:11:04.973Z,12.97
2019-03-27T06:13:34.789Z,12.60
2019-03-27T06:16:04.581Z,13.97
2019-03-27T06:18:34.413Z,11.63
2019-03-27T06:21:04.332Z,12.97
2019-03-27T06:23:34.148Z,11.90
2019-03-27T06:26:04.067Z,12.53
2019-03-27T06:28:33.915Z,12.80
2019-03-27T06:31:03.699Z,13.60
2019-03-27T06:33:33.513Z,12.17
2019-03-27T06:36:03.325Z,13.97
2019-03-27T06:38:33.161Z,13.23
2019-03-27T06:41:03.337Z,14.10
2019-03-27T06:43:33.253Z,15.00
2019-03-27T06:46:03.041Z,16.00
2019-03-27T06:48:32.952Z,13.27
2019-03-27T06:51:02.889Z,14.27
2019-03-27T06:53:32.777Z,13.63
2019-03-27T06:56:02.692Z,14.60
2019-03-27T06:58:32.521Z,12.93
2019-03-27T07:01:02.342Z,12.17
2019-03-27T07:03:32.161Z,13.17
2019-03-27T07:06:01.985Z,12.13
2019-03-27T07:08:31.881Z,11.93
2019-03-27T07:11:01.749Z,12.53
2019-03-27T07:13:31.636Z,11.27
2019-03-27T07:16:01.452Z,11.60
2019-03-27T07:18:39.866Z,11.27
2019-03-27T07:21:02.893Z,12.53
2019-03-27T07:23:32.665Z,11.43
2019-03-27T07:26:02.752Z,11.27
2019-03-27T07:28:32.676Z,10.57
2019-03-27T07:31:02.576Z,9.40
2019-03-27T07:33:32.392Z,9.27
2019-03-27T07:36:02.313Z,8.23
2019-03-27T07:38:32.964Z,7.53
2019-03-27T07:41:02.872Z,8.47
2019-03-27T07:43:32.646Z,8.77
2019-03-27T07:46:02.424Z,7.13
2019-03-27T07:48:32.232Z,9.07
2019-03-27T07:51:02.044Z,8.30
2019-03-27T07:53:31.853Z,8.77
2019-03-27T07:56:01.655Z,7.63
2019-03-27T07:58:31.459Z,8.63
2019-03-27T08:01:01.268Z,8.03
2019-03-27T08:03:31.164Z,7.87
2019-03-27T08:06:01.016Z,8.27
2019-03-27T08:08:30.844Z,7.97
2019-03-27T08:11:00.723Z,8.07
2019-03-27T08:13:30.532Z,7.97
2019-03-27T08:16:00.435Z,8.10
2019-03-27T08:18:30.248Z,8.77
2019-03-27T08:21:00.116Z,7.63
2019-03-27T08:23:29.939Z,7.77
2019-03-27T08:26:00.109Z,7.23
2019-03-27T08:28:29.989Z,7.73
2019-03-27T08:30:59.891Z,7.53
2019-03-27T08:33:29.687Z,7.03
2019-03-27T08:35:59.540Z,7.40
2019-03-27T08:38:30.383Z,7.03
2019-03-27T08:41:00.209Z,7.90
2019-03-27T08:43:29.995Z,7.50
2019-03-27T08:46:00.334Z,6.70
2019-03-27T08:48:30.143Z,7.13
2019-03-27T08:50:59.975Z,7.40
2019-03-27T08:53:29.813Z,7.17
2019-03-27T08:55:59.687Z,6.40
2019-03-27T08:58:29.468Z,6.70
2019-03-27T09:00:59.265Z,5.43
2019-03-27T09:03:29.097Z,5.67
2019-03-27T09:05:59.747Z,6.03
2019-03-27T09:08:29.587Z,5.70
2019-03-27T09:10:59.442Z,6.73
2019-03-27T09:13:29.272Z,5.50
2019-03-27T09:15:59.043Z,6.63
2019-03-27T09:18:28.866Z,6.20
2019-03-27T09:20:58.650Z,5.30
2019-03-27T09:23:28.535Z,6.77
2019-03-27T09:25:58.338Z,6.43
2019-03-27T09:28:28.106Z,4.90
2019-03-27T09:30:58.032Z,5.00
2019-03-27T09:33:27.890Z,4.97
2019-03-27T09:35:57.799Z,5.87
2019-03-27T09:38:27.730Z,4.97
2019-03-27T09:40:57.551Z,2.73
2019-03-27T09:43:27.378Z,2.90
2019-03-27T09:45:57.161Z,2.73
2019-03-27T09:48:27.046Z,2.93
2019-03-27T09:50:56.982Z,2.93
2019-03-27T09:53:26.758Z,4.13
2019-03-27T09:55:56.578Z,8.97
2019-03-27T09:58:26.282Z,2.70
2019-03-27T10:01:03.794Z,3.00
2019-03-27T10:03:33.726Z,8.37
2019-03-27T10:06:03.574Z,3.30
2019-03-27T10:08:33.352Z,3.03
2019-03-27T10:11:03.350Z,11.53
2019-03-27T10:13:33.190Z,2.50
2019-03-27T10:16:03.158Z,3.33
2019-03-27T10:18:32.938Z,2.57
2019-03-27T10:21:02.775Z,2.70
2019-03-27T10:23:32.586Z,5.77
2019-03-27T10:26:02.410Z,3.40
2019-03-27T10:28:32.217Z,2.63
2019-03-27T10:31:02.045Z,2.60
2019-03-27T10:33:31.845Z,3.43
2019-03-27T10:36:01.749Z,3.13
2019-03-27T10:38:31.573Z,3.40
2019-03-27T10:41:01.422Z,3.00
2019-03-27T10:43:31.249Z,2.73
2019-03-27T10:46:01.147Z,3.20
2019-03-27T10:48:31.073Z,2.87
2019-03-27T10:51:00.889Z,2.80
2019-03-27T10:53:30.779Z,2.73
2019-03-27T10:56:00.648Z,2.70
2019-03-27T10:58:30.461Z,2.80
2019-03-27T11:01:00.364Z,2.60
2019-03-27T11:03:30.169Z,2.83
2019-03-27T11:05:59.992Z,2.20
2019-03-27T11:08:29.781Z,2.60
2019-03-27T11:10:59.604Z,2.90
2019-03-27T11:13:29.569Z,3.03
2019-03-27T11:15:59.284Z,2.57
2019-03-27T11:18:29.085Z,2.60
2019-03-27T11:20:58.932Z,2.87
2019-03-27T11:23:28.772Z,2.73
2019-03-27T11:25:58.620Z,2.50
2019-03-27T11:28:28.485Z,2.97
2019-03-27T11:30:58.265Z,2.87
2019-03-27T11:33:29.030Z,2.93
2019-03-27T11:35:58.904Z,6.40
2019-03-27T11:38:28.682Z,2.90
2019-03-27T11:40:58.510Z,3.17
2019-03-27T11:43:28.417Z,2.80
2019-03-27T11:45:58.269Z,2.53
2019-03-27T11:48:28.056Z,2.97
2019-03-27T11:50:57.856Z,3.00
2019-03-27T11:53:27.784Z,2.20
2019-03-27T11:55:57.664Z,2.83
2019-03-27T11:58:27.528Z,2.77
2019-03-27T12:00:57.345Z,2.40
2019-03-27T12:03:27.181Z,2.43
2019-03-27T12:05:57.032Z,2.57
2019-03-27T12:08:26.944Z,2.27
2019-03-27T12:10:56.747Z,2.33
2019-03-27T12:13:26.564Z,2.67
2019-03-27T12:15:56.386Z,2.30
2019-03-27T12:18:26.223Z,2.50
2019-03-27T12:20:59.515Z,3.17
2019-03-27T12:23:27.932Z,2.00
2019-03-27T12:25:57.789Z,2.37
2019-03-27T12:28:27.560Z,2.20
2019-03-27T12:30:57.427Z,2.50
2019-03-27T12:33:27.219Z,3.10
2019-03-27T12:35:57.152Z,2.30
2019-03-27T12:38:26.927Z,2.00
2019-03-27T12:40:56.776Z,2.30
2019-03-27T12:43:26.659Z,2.40
2019-03-27T12:45:56.517Z,4.50
2019-03-27T12:48:26.323Z,4.47
2019-03-27T12:50:56.511Z,2.30
2019-03-27T12:53:26.359Z,3.70
2019-03-27T12:55:56.207Z,3.20
2019-03-27T12:58:26.065Z,4.63
2019-03-27T13:00:55.952Z,2.50
2019-03-27T13:03:25.746Z,1.60
2019-03-27T13:05:55.571Z,1.77
2019-03-27T13:08:25.395Z,2.10
2019-03-27T13:10:55.175Z,3.90
2019-03-27T13:13:24.987Z,7.30
2019-03-27T13:15:54.867Z,12.33
2019-03-27T13:18:24.699Z,2.60
2019-03-27T13:20:54.500Z,7.37
2019-03-27T13:23:24.325Z,3.70
2019-03-27T13:25:54.143Z,2.97
2019-03-27T13:28:23.969Z,2.93
2019-03-27T13:30:53.750Z,4.23
2019-03-27T13:33:23.590Z,3.33
2019-03-27T13:35:53.418Z,5.70
2019-03-27T13:38:23.234Z,4.67
2019-03-27T13:40:53.075Z,3.50
2019-03-27T13:43:22.914Z,7.17
2019-03-27T13:45:52.735Z,3.40
2019-03-27T13:48:22.587Z,5.97
2019-03-27T13:50:52.397Z,6.93
2019-03-27T13:53:22.215Z,7.17
2019-03-27T13:55:52.101Z,5.07
2019-03-27T13:58:21.982Z,4.00
2019-03-27T14:00:51.812Z,18.77
2019-03-27T14:03:21.712Z,26.60
2019-03-27T14:05:51.527Z,3.63
2019-03-27T14:08:21.510Z,4.20
2019-03-27T14:10:51.320Z,4.93
2019-03-27T14:13:21.122Z,6.57
2019-03-27T14:15:50.966Z,4.67
2019-03-27T14:18:20.738Z,6.03
2019-03-27T14:20:50.631Z,4.17
2019-03-27T14:23:20.449Z,4.37
2019-03-27T14:25:50.277Z,4.23
2019-03-27T14:28:20.146Z,3.60
2019-03-27T14:30:51.780Z,4.70
2019-03-27T14:33:21.754Z,5.47
2019-03-27T14:35:51.535Z,4.33
2019-03-27T14:38:40.199Z,5.07
2019-03-27T14:41:10.202Z,7.50
2019-03-27T14:43:40.126Z,5.20
2019-03-27T14:46:09.957Z,9.27
2019-03-27T14:48:39.793Z,12.60
2019-03-27T14:51:09.645Z,5.53
2019-03-27T14:53:39.377Z,6.67
2019-03-27T14:56:09.245Z,6.10
2019-03-27T14:58:39.045Z,5.10
2019-03-27T15:01:08.838Z,5.77
2019-03-27T15:03:38.666Z,6.10
2019-03-27T15:06:08.506Z,5.33
2019-03-27T15:08:38.452Z,5.63
2019-03-27T15:11:08.281Z,4.87
2019-03-27T15:13:38.062Z,6.07
2019-03-27T15:16:07.924Z,5.37
2019-03-27T15:18:37.691Z,4.33
2019-03-27T15:21:07.604Z,6.70
2019-03-27T15:23:37.387Z,6.53
2019-03-27T15:26:07.211Z,5.80
2019-03-27T15:28:37.033Z,6.73
2019-03-27T15:31:19.530Z,5.53
2019-03-27T15:33:38.276Z,4.87
2019-03-27T15:36:08.224Z,5.03
2019-03-27T15:38:38.028Z,5.43
2019-03-27T15:41:07.824Z,5.63
2019-03-27T15:43:38.048Z,6.13
2019-03-27T15:46:07.940Z,5.50
2019-03-27T15:48:37.768Z,6.20
2019-03-27T15:51:07.656Z,6.00
2019-03-27T15:53:37.516Z,6.00
2019-03-27T15:56:07.348Z,6.70
2019-03-27T15:58:37.235Z,5.90
2019-03-27T16:01:08.244Z,6.77
2019-03-27T16:03:39.092Z,6.20
2019-03-27T16:06:08.876Z,7.13
2019-03-27T16:08:38.680Z,6.77
2019-03-27T16:11:08.708Z,6.83
2019-03-27T16:13:38.539Z,5.77
2019-03-27T16:16:08.452Z,7.57
2019-03-27T16:18:38.319Z,8.07
2019-03-27T16:21:08.131Z,7.87
2019-03-27T16:23:37.968Z,7.70
2019-03-27T16:26:07.760Z,7.43
2019-03-27T16:28:37.630Z,7.30
2019-03-27T16:31:07.542Z,10.30
2019-03-27T16:33:38.183Z,9.70
2019-03-27T16:36:08.151Z,12.83
2019-03-27T16:38:37.941Z,8.67
2019-03-27T16:41:07.786Z,8.33
2019-03-27T16:43:37.568Z,7.63
2019-03-27T16:46:07.455Z,7.73
2019-03-27T16:48:37.301Z,7.23
2019-03-27T16:51:07.090Z,8.53
2019-03-27T16:53:37.055Z,8.63
2019-03-27T16:56:06.903Z,12.53
2019-03-27T16:58:36.707Z,10.10
2019-03-27T17:01:06.631Z,11.27
2019-03-27T17:03:36.463Z,14.40
2019-03-27T17:06:06.311Z,17.80
2019-03-27T17:08:36.535Z,9.33
2019-03-27T17:11:06.404Z,11.97
2019-03-27T17:13:36.532Z,19.83
2019-03-27T17:16:07.195Z,10.40
2019-03-27T17:18:37.110Z,8.60
2019-03-27T17:21:07.038Z,9.23
2019-03-27T17:23:36.918Z,10.00
2019-03-27T17:26:06.832Z,8.70
2019-03-27T17:28:36.634Z,8.30
2019-03-27T17:31:06.462Z,9.03
2019-03-27T17:33:36.298Z,9.07
2019-03-27T17:36:06.344Z,9.23
2019-03-27T17:38:36.109Z,8.27
2019-03-27T17:41:05.931Z,7.57
2019-03-27T17:43:36.895Z,7.90
2019-03-27T17:46:06.761Z,7.13
2019-03-27T17:48:39.358Z,7.07
2019-03-27T17:51:15.128Z,8.43
2019-03-27T17:53:44.954Z,7.10
2019-03-27T17:56:14.778Z,7.33
2019-03-27T17:58:44.570Z,6.97
2019-03-27T18:01:14.474Z,7.90
2019-03-27T18:03:44.321Z,7.60
2019-03-27T18:06:14.113Z,7.90
2019-03-27T18:08:43.967Z,9.23
2019-03-27T18:11:13.850Z,9.37
2019-03-27T18:13:43.569Z,8.97
2019-03-27T18:16:13.390Z,7.90
2019-03-27T18:18:43.166Z,9.73
2019-03-27T18:21:12.939Z,8.97
2019-03-27T18:23:46.443Z,9.60
2019-03-27T18:26:14.271Z,9.30
2019-03-27T18:28:44.073Z,10.53
2019-03-27T18:31:13.919Z,12.57
2019-03-27T18:33:43.890Z,10.30
2019-03-27T18:36:13.879Z,10.87
2019-03-27T18:38:45.837Z,9.83
2019-03-27T18:41:15.183Z,10.03
2019-03-27T18:43:44.941Z,9.20
2019-03-27T18:46:14.721Z,9.40
2019-03-27T18:48:44.657Z,9.10
2019-03-27T18:51:14.453Z,9.33
2019-03-27T18:53:44.239Z,7.77
2019-03-27T18:56:14.059Z,8.33
2019-03-27T18:58:43.884Z,7.10
2019-03-27T19:01:13.700Z,10.07
2019-03-27T19:03:43.619Z,10.50
2019-03-27T19:06:13.396Z,7.23
2019-03-27T19:08:43.259Z,8.27
2019-03-27T19:11:13.161Z,7.43
2019-03-27T19:13:43.064Z,7.37
2019-03-27T19:16:13.124Z,6.50
2019-03-27T19:18:43.019Z,6.93
2019-03-27T19:21:12.906Z,6.70
2019-03-27T19:23:42.719Z,5.57
2019-03-27T19:26:12.499Z,6.23
2019-03-27T19:28:42.315Z,6.57
2019-03-27T19:31:12.102Z,6.10
2019-03-27T19:33:41.831Z,7.10
2019-03-27T19:36:11.615Z,5.80
2019-03-27T19:38:41.462Z,7.63
2019-03-27T19:41:11.247Z,6.60
2019-03-27T19:43:41.076Z,9.07
2019-03-27T19:46:10.943Z,8.10
2019-03-27T19:48:40.839Z,6.73
2019-03-27T19:51:11.425Z,6.83
2019-03-27T19:53:41.351Z,8.63
2019-03-27T19:56:11.295Z,7.93
2019-03-27T19:58:41.094Z,6.57
2019-03-27T20:01:10.890Z,7.17
2019-03-27T20:03:40.693Z,6.40
2019-03-27T20:06:10.483Z,7.97
2019-03-27T20:08:40.374Z,7.33
2019-03-27T20:11:10.221Z,7.43
2019-03-27T20:13:40.025Z,6.63
2019-03-27T20:16:09.838Z,7.87
2019-03-27T20:18:39.653Z,7.60
2019-03-27T20:21:09.522Z,7.50
2019-03-27T20:23:40.969Z,7.63
2019-03-27T20:26:10.781Z,7.57
2019-03-27T20:28:40.596Z,7.63
2019-03-27T20:31:10.447Z,7.43
2019-03-27T20:33:40.494Z,7.53
2019-03-27T20:36:13.024Z,6.90
2019-03-27T20:38:41.702Z,7.37
2019-03-27T20:41:11.476Z,7.40
2019-03-27T20:43:41.278Z,7.43
2019-03-27T20:46:24.105Z,7.97
2019-03-27T20:48:42.804Z,8.60
2019-03-27T20:51:12.589Z,7.57
2019-03-27T20:53:42.384Z,7.30
2019-03-27T20:56:12.171Z,9.10
2019-03-27T20:58:41.989Z,8.70
2019-03-27T21:01:12.201Z,8.70
2019-03-27T21:03:42.043Z,9.70
2019-03-27T21:06:11.923Z,10.27
2019-03-27T21:08:41.693Z,9.03
2019-03-27T21:11:11.563Z,8.57
2019-03-27T21:13:41.584Z,8.80
2019-03-27T21:16:11.476Z,7.60
2019-03-27T21:18:41.290Z,8.50
2019-03-27T21:21:11.179Z,7.70
2019-03-27T21:23:41.084Z,8.57
2019-03-27T21:26:11.183Z,8.00
2019-03-27T21:28:40.989Z,8.83
2019-03-27T21:31:10.784Z,6.90
2019-03-27T21:33:40.652Z,8.43
2019-03-27T21:36:10.463Z,8.10
2019-03-27T21:38:40.333Z,7.83
2019-03-27T21:41:10.151Z,9.23
2019-03-27T21:43:39.959Z,8.07
2019-03-27T21:46:09.791Z,8.77
2019-03-27T21:48:39.611Z,7.83
2019-03-27T21:51:09.432Z,8.40
2019-03-27T21:53:39.203Z,7.80
2019-03-27T21:56:09.315Z,8.00
2019-03-27T21:58:39.106Z,8.90
2019-03-27T22:01:08.967Z,8.10
2019-03-27T22:03:38.748Z,7.93
2019-03-27T22:06:08.621Z,7.70
2019-03-27T22:08:38.375Z,8.50
2019-03-27T22:11:08.187Z,9.30
2019-03-27T22:13:38.031Z,8.77
2019-03-27T22:16:07.840Z,9.60
2019-03-27T22:18:37.727Z,10.10
2019-03-27T22:21:07.535Z,9.30
2019-03-27T22:23:37.427Z,10.67
2019-03-27T22:26:07.288Z,9.97
2019-03-27T22:28:37.190Z,8.40
2019-03-27T22:31:06.889Z,9.20
2019-03-27T22:33:36.675Z,9.53
2019-03-27T22:36:06.516Z,11.10
2019-03-27T22:38:36.302Z,10.63
2019-03-27T22:41:06.398Z,11.00
2019-03-27T22:43:36.205Z,9.60
2019-03-27T22:46:06.040Z,11.20
2019-03-27T22:48:35.835Z,11.87
2019-03-27T22:51:05.680Z,11.67
2019-03-27T22:53:35.495Z,11.63
2019-03-27T22:56:05.397Z,13.30
2019-03-27T22:58:35.258Z,13.63
2019-03-27T23:01:05.302Z,12.30
2019-03-27T23:03:35.575Z,12.70
2019-03-27T23:06:05.403Z,11.47
2019-03-27T23:08:35.202Z,11.97
2019-03-27T23:11:05.391Z,11.20
2019-03-27T23:13:35.347Z,11.03
2019-03-27T23:16:05.235Z,12.47
2019-03-27T23:18:35.115Z,11.30
2019-03-27T23:21:05.235Z,11.70
2019-03-27T23:23:35.051Z,12.10
2019-03-27T23:26:04.835Z,11.67
2019-03-27T23:28:34.654Z,12.10
2019-03-27T23:31:04.449Z,11.57
2019-03-27T23:33:34.278Z,11.90
2019-03-27T23:36:04.226Z,11.93
2019-03-27T23:38:34.022Z,12.63
2019-03-27T23:41:03.981Z,12.27
2019-03-27T23:43:33.759Z,12.17
2019-03-27T23:46:03.588Z,12.07
2019-03-27T23:48:33.363Z,12.60
2019-03-27T23:51:03.209Z,12.97
2019-03-27T23:53:33.094Z,12.87
2019-03-27T23:56:15.571Z,13.03
2019-03-27T23:58:34.399Z,12.83
